sensor_id;sensor_type;location;lat;lon;timestamp;P1;durP1;ratioP1;P2;durP2;ratioP2
8050;SDS011;4068;42.158;24.732;2022-12-28T00:00:28;6.25;;;4.20;;
8050;SDS011;4068;42.158;24.732;2022-12-28T00:02:54;4.60;;;4.10;;
8050;SDS011;4068;42.158;24.732;2022-12-28T00:05:20;6.18;;;4.63;;
8050;SDS011;4068;42.158;24.732;2022-12-28T00:07:46;4.90;;;4.28;;
8050;SDS011;4068;42.158;24.732;2022-12-28T00:10:11;4.95;;;4.00;;
8050;SDS011;4068;42.158;24.732;2022-12-28T00:12:36;5.97;;;4.05;;
8050;SDS011;4068;42.158;24.732;2022-12-28T00:15:02;5.22;;;3.95;;
8050;SDS011;4068;42.158;24.732;2022-12-28T00:17:27;5.13;;;4.28;;
8050;SDS011;4068;42.158;24.732;2022-12-28T00:19:53;5.93;;;4.22;;
8050;SDS011;4068;42.158;24.732;2022-12-28T00:22:18;4.60;;;4.05;;
8050;SDS011;4068;42.158;24.732;2022-12-28T00:24:44;4.55;;;4.10;;
8050;SDS011;4068;42.158;24.732;2022-12-28T00:27:09;5.80;;;4.55;;
8050;SDS011;4068;42.158;24.732;2022-12-28T00:29:34;4.60;;;4.20;;
8050;SDS011;4068;42.158;24.732;2022-12-28T00:32:00;7.72;;;4.32;;
8050;SDS011;4068;42.158;24.732;2022-12-28T00:34:25;6.85;;;4.43;;
8050;SDS011;4068;42.158;24.732;2022-12-28T00:36:51;7.95;;;4.25;;
8050;SDS011;4068;42.158;24.732;2022-12-28T00:39:17;4.97;;;3.95;;
8050;SDS011;4068;42.158;24.732;2022-12-28T00:41:44;6.97;;;4.57;;
8050;SDS011;4068;42.158;24.732;2022-12-28T00:44:09;4.88;;;4.03;;
8050;SDS011;4068;42.158;24.732;2022-12-28T00:46:35;7.68;;;4.50;;
8050;SDS011;4068;42.158;24.732;2022-12-28T00:49:00;4.22;;;3.78;;
8050;SDS011;4068;42.158;24.732;2022-12-28T00:54:10;4.47;;;3.60;;
8050;SDS011;4068;42.158;24.732;2022-12-28T00:56:35;6.90;;;4.20;;
8050;SDS011;4068;42.158;24.732;2022-12-28T00:59:01;9.57;;;4.15;;
8050;SDS011;4068;42.158;24.732;2022-12-28T01:01:26;4.20;;;3.80;;
8050;SDS011;4068;42.158;24.732;2022-12-28T01:03:56;5.90;;;3.80;;
8050;SDS011;4068;42.158;24.732;2022-12-28T01:06:22;20.52;;;5.40;;
8050;SDS011;4068;42.158;24.732;2022-12-28T01:08:48;4.57;;;4.10;;
8050;SDS011;4068;42.158;24.732;2022-12-28T01:11:18;5.00;;;4.00;;
8050;SDS011;4068;42.158;24.732;2022-12-28T01:13:46;4.90;;;3.80;;
8050;SDS011;4068;42.158;24.732;2022-12-28T01:16:14;5.30;;;3.85;;
8050;SDS011;4068;42.158;24.732;2022-12-28T01:18:42;5.50;;;4.13;;
8050;SDS011;4068;42.158;24.732;2022-12-28T01:21:12;5.82;;;3.83;;
8050;SDS011;4068;42.158;24.732;2022-12-28T01:23:39;3.80;;;3.50;;
8050;SDS011;4068;42.158;24.732;2022-12-28T01:26:04;7.95;;;3.95;;
8050;SDS011;4068;42.158;24.732;2022-12-28T01:28:30;5.57;;;4.05;;
8050;SDS011;4068;42.158;24.732;2022-12-28T01:30:56;5.43;;;4.53;;
8050;SDS011;4068;42.158;24.732;2022-12-28T01:33:21;6.20;;;4.15;;
8050;SDS011;4068;42.158;24.732;2022-12-28T01:35:46;8.20;;;4.03;;
8050;SDS011;4068;42.158;24.732;2022-12-28T01:38:12;4.90;;;3.85;;
8050;SDS011;4068;42.158;24.732;2022-12-28T01:40:40;4.63;;;3.97;;
8050;SDS011;4068;42.158;24.732;2022-12-28T01:43:14;4.00;;;3.53;;
8050;SDS011;4068;42.158;24.732;2022-12-28T01:45:40;3.80;;;3.45;;
8050;SDS011;4068;42.158;24.732;2022-12-28T01:48:19;13.90;;;4.38;;
8050;SDS011;4068;42.158;24.732;2022-12-28T01:50:48;11.55;;;4.13;;
8050;SDS011;4068;42.158;24.732;2022-12-28T01:53:14;13.57;;;6.00;;
8050;SDS011;4068;42.158;24.732;2022-12-28T01:55:42;9.05;;;4.00;;
8050;SDS011;4068;42.158;24.732;2022-12-28T01:58:10;44.83;;;6.55;;
8050;SDS011;4068;42.158;24.732;2022-12-28T02:00:41;14.60;;;4.68;;
8050;SDS011;4068;42.158;24.732;2022-12-28T02:03:08;4.45;;;3.90;;
8050;SDS011;4068;42.158;24.732;2022-12-28T02:05:42;5.68;;;4.10;;
8050;SDS011;4068;42.158;24.732;2022-12-28T02:08:27;5.05;;;3.58;;
8050;SDS011;4068;42.158;24.732;2022-12-28T02:10:59;3.88;;;3.42;;
8050;SDS011;4068;42.158;24.732;2022-12-28T02:13:25;4.47;;;3.90;;
8050;SDS011;4068;42.158;24.732;2022-12-28T02:15:51;5.53;;;4.25;;
8050;SDS011;4068;42.158;24.732;2022-12-28T02:18:17;5.90;;;4.15;;
8050;SDS011;4068;42.158;24.732;2022-12-28T02:31:07;5.00;;;3.80;;
8050;SDS011;4068;42.158;24.732;2022-12-28T02:33:41;5.15;;;3.72;;
8050;SDS011;4068;42.158;24.732;2022-12-28T02:36:17;4.13;;;3.47;;
8050;SDS011;4068;42.158;24.732;2022-12-28T02:41:17;5.00;;;3.80;;
8050;SDS011;4068;42.158;24.732;2022-12-28T02:43:45;4.00;;;3.50;;
8050;SDS011;4068;42.158;24.732;2022-12-28T02:46:15;6.07;;;3.53;;
8050;SDS011;4068;42.158;24.732;2022-12-28T03:03:38;4.47;;;3.38;;
8050;SDS011;4068;42.158;24.732;2022-12-28T03:06:53;5.32;;;3.30;;
8050;SDS011;4068;42.158;24.732;2022-12-28T03:09:44;5.00;;;3.58;;
8050;SDS011;4068;42.158;24.732;2022-12-28T03:15:07;5.90;;;3.97;;
8050;SDS011;4068;42.158;24.732;2022-12-28T03:17:37;5.53;;;3.78;;
8050;SDS011;4068;42.158;24.732;2022-12-28T03:20:24;3.70;;;3.40;;
8050;SDS011;4068;42.158;24.732;2022-12-28T03:23:13;4.05;;;3.72;;
8050;SDS011;4068;42.158;24.732;2022-12-28T03:26:00;4.18;;;3.60;;
8050;SDS011;4068;42.158;24.732;2022-12-28T03:28:47;4.15;;;3.67;;
8050;SDS011;4068;42.158;24.732;2022-12-28T03:31:32;4.53;;;4.13;;
8050;SDS011;4068;42.158;24.732;2022-12-28T03:34:00;5.00;;;3.80;;
8050;SDS011;4068;42.158;24.732;2022-12-28T03:39:57;3.70;;;3.40;;
8050;SDS011;4068;42.158;24.732;2022-12-28T03:42:27;4.50;;;3.58;;
8050;SDS011;4068;42.158;24.732;2022-12-28T03:45:19;4.53;;;3.80;;
8050;SDS011;4068;42.158;24.732;2022-12-28T03:47:49;4.30;;;3.90;;
8050;SDS011;4068;42.158;24.732;2022-12-28T03:50:17;7.63;;;4.13;;
8050;SDS011;4068;42.158;24.732;2022-12-28T03:52:44;4.20;;;3.72;;
8050;SDS011;4068;42.158;24.732;2022-12-28T03:55:10;4.20;;;3.50;;
8050;SDS011;4068;42.158;24.732;2022-12-28T03:57:38;6.32;;;3.95;;
8050;SDS011;4068;42.158;24.732;2022-12-28T04:00:04;5.40;;;3.72;;
8050;SDS011;4068;42.158;24.732;2022-12-28T04:02:31;4.28;;;3.80;;
8050;SDS011;4068;42.158;24.732;2022-12-28T04:04:56;5.75;;;4.05;;
8050;SDS011;4068;42.158;24.732;2022-12-28T04:07:22;5.85;;;3.83;;
8050;SDS011;4068;42.158;24.732;2022-12-28T04:09:47;4.38;;;3.90;;
8050;SDS011;4068;42.158;24.732;2022-12-28T04:12:13;6.00;;;4.10;;
8050;SDS011;4068;42.158;24.732;2022-12-28T04:14:38;4.00;;;3.63;;
8050;SDS011;4068;42.158;24.732;2022-12-28T04:17:04;5.85;;;4.00;;
8050;SDS011;4068;42.158;24.732;2022-12-28T04:19:29;7.10;;;3.90;;
8050;SDS011;4068;42.158;24.732;2022-12-28T04:21:55;7.32;;;3.95;;
8050;SDS011;4068;42.158;24.732;2022-12-28T04:24:20;9.05;;;3.70;;
8050;SDS011;4068;42.158;24.732;2022-12-28T04:26:46;5.32;;;3.97;;
8050;SDS011;4068;42.158;24.732;2022-12-28T04:29:11;4.65;;;4.15;;
8050;SDS011;4068;42.158;24.732;2022-12-28T04:31:37;4.97;;;4.07;;
8050;SDS011;4068;42.158;24.732;2022-12-28T04:34:02;6.45;;;3.63;;
8050;SDS011;4068;42.158;24.732;2022-12-28T04:36:28;4.72;;;4.13;;
8050;SDS011;4068;42.158;24.732;2022-12-28T04:38:53;3.78;;;3.38;;
8050;SDS011;4068;42.158;24.732;2022-12-28T04:41:19;5.90;;;3.85;;
8050;SDS011;4068;42.158;24.732;2022-12-28T04:43:44;6.05;;;4.38;;
8050;SDS011;4068;42.158;24.732;2022-12-28T04:46:10;5.03;;;3.67;;
8050;SDS011;4068;42.158;24.732;2022-12-28T04:48:38;4.22;;;3.80;;
8050;SDS011;4068;42.158;24.732;2022-12-28T04:51:07;5.35;;;4.15;;
8050;SDS011;4068;42.158;24.732;2022-12-28T04:53:43;7.90;;;4.38;;
8050;SDS011;4068;42.158;24.732;2022-12-28T04:56:10;4.45;;;3.85;;
8050;SDS011;4068;42.158;24.732;2022-12-28T04:58:36;5.28;;;4.00;;
8050;SDS011;4068;42.158;24.732;2022-12-28T05:01:06;5.53;;;3.95;;
8050;SDS011;4068;42.158;24.732;2022-12-28T05:03:34;4.07;;;3.67;;
8050;SDS011;4068;42.158;24.732;2022-12-28T05:06:01;5.18;;;3.90;;
8050;SDS011;4068;42.158;24.732;2022-12-28T05:08:30;6.60;;;3.97;;
8050;SDS011;4068;42.158;24.732;2022-12-28T05:10:59;8.07;;;4.15;;
8050;SDS011;4068;42.158;24.732;2022-12-28T05:13:26;8.68;;;4.65;;
8050;SDS011;4068;42.158;24.732;2022-12-28T05:15:51;4.18;;;3.60;;
8050;SDS011;4068;42.158;24.732;2022-12-28T05:18:17;4.70;;;3.63;;
8050;SDS011;4068;42.158;24.732;2022-12-28T05:20:42;8.10;;;4.03;;
8050;SDS011;4068;42.158;24.732;2022-12-28T05:23:07;5.05;;;4.00;;
8050;SDS011;4068;42.158;24.732;2022-12-28T05:25:33;6.28;;;4.03;;
8050;SDS011;4068;42.158;24.732;2022-12-28T05:27:58;5.30;;;4.10;;
8050;SDS011;4068;42.158;24.732;2022-12-28T05:30:24;5.78;;;4.72;;
8050;SDS011;4068;42.158;24.732;2022-12-28T05:32:49;5.47;;;4.38;;
8050;SDS011;4068;42.158;24.732;2022-12-28T05:35:15;5.97;;;4.60;;
8050;SDS011;4068;42.158;24.732;2022-12-28T05:37:40;4.68;;;4.18;;
8050;SDS011;4068;42.158;24.732;2022-12-28T05:40:06;6.93;;;4.15;;
8050;SDS011;4068;42.158;24.732;2022-12-28T05:42:33;5.72;;;4.22;;
8050;SDS011;4068;42.158;24.732;2022-12-28T05:44:59;6.07;;;4.43;;
8050;SDS011;4068;42.158;24.732;2022-12-28T05:47:24;7.57;;;5.47;;
8050;SDS011;4068;42.158;24.732;2022-12-28T05:49:50;9.07;;;5.45;;
8050;SDS011;4068;42.158;24.732;2022-12-28T05:52:15;6.40;;;4.78;;
8050;SDS011;4068;42.158;24.732;2022-12-28T05:54:41;5.32;;;4.38;;
8050;SDS011;4068;42.158;24.732;2022-12-28T05:57:06;7.47;;;4.45;;
8050;SDS011;4068;42.158;24.732;2022-12-28T05:59:32;10.73;;;5.22;;
8050;SDS011;4068;42.158;24.732;2022-12-28T06:01:57;9.27;;;4.85;;
8050;SDS011;4068;42.158;24.732;2022-12-28T06:04:22;6.15;;;4.40;;
8050;SDS011;4068;42.158;24.732;2022-12-28T06:06:49;6.90;;;4.18;;
8050;SDS011;4068;42.158;24.732;2022-12-28T06:09:14;10.35;;;4.50;;
8050;SDS011;4068;42.158;24.732;2022-12-28T06:11:40;7.72;;;5.15;;
8050;SDS011;4068;42.158;24.732;2022-12-28T06:14:06;9.82;;;4.90;;
8050;SDS011;4068;42.158;24.732;2022-12-28T06:16:32;9.43;;;4.60;;
8050;SDS011;4068;42.158;24.732;2022-12-28T06:19:06;11.32;;;5.03;;
8050;SDS011;4068;42.158;24.732;2022-12-28T06:21:34;6.38;;;5.00;;
8050;SDS011;4068;42.158;24.732;2022-12-28T06:24:02;12.38;;;5.55;;
8050;SDS011;4068;42.158;24.732;2022-12-28T06:26:29;7.60;;;5.05;;
8050;SDS011;4068;42.158;24.732;2022-12-28T06:28:56;7.80;;;5.57;;
8050;SDS011;4068;42.158;24.732;2022-12-28T06:31:23;7.45;;;5.28;;
8050;SDS011;4068;42.158;24.732;2022-12-28T06:33:52;6.97;;;5.18;;
8050;SDS011;4068;42.158;24.732;2022-12-28T06:36:19;14.07;;;5.57;;
8050;SDS011;4068;42.158;24.732;2022-12-28T06:38:47;9.32;;;5.20;;
8050;SDS011;4068;42.158;24.732;2022-12-28T06:41:13;9.18;;;5.13;;
8050;SDS011;4068;42.158;24.732;2022-12-28T06:43:41;11.50;;;5.55;;
8050;SDS011;4068;42.158;24.732;2022-12-28T06:46:07;19.38;;;5.47;;
8050;SDS011;4068;42.158;24.732;2022-12-28T06:48:33;19.90;;;5.45;;
8050;SDS011;4068;42.158;24.732;2022-12-28T06:51:00;10.95;;;5.53;;
8050;SDS011;4068;42.158;24.732;2022-12-28T06:53:27;8.50;;;5.15;;
8050;SDS011;4068;42.158;24.732;2022-12-28T06:55:55;16.25;;;5.78;;
8050;SDS011;4068;42.158;24.732;2022-12-28T06:58:22;8.00;;;4.90;;
8050;SDS011;4068;42.158;24.732;2022-12-28T07:00:52;6.13;;;4.85;;
8050;SDS011;4068;42.158;24.732;2022-12-28T07:03:18;11.60;;;5.90;;
8050;SDS011;4068;42.158;24.732;2022-12-28T07:05:44;8.50;;;5.82;;
8050;SDS011;4068;42.158;24.732;2022-12-28T07:08:10;6.28;;;5.55;;
8050;SDS011;4068;42.158;24.732;2022-12-28T07:10:35;11.02;;;6.72;;
8050;SDS011;4068;42.158;24.732;2022-12-28T07:13:01;10.85;;;6.90;;
8050;SDS011;4068;42.158;24.732;2022-12-28T07:15:27;13.77;;;7.60;;
8050;SDS011;4068;42.158;24.732;2022-12-28T07:17:53;15.80;;;7.88;;
8050;SDS011;4068;42.158;24.732;2022-12-28T07:20:18;18.83;;;8.43;;
8050;SDS011;4068;42.158;24.732;2022-12-28T07:22:44;12.93;;;8.95;;
8050;SDS011;4068;42.158;24.732;2022-12-28T07:25:09;17.85;;;8.68;;
8050;SDS011;4068;42.158;24.732;2022-12-28T07:27:35;15.15;;;7.90;;
8050;SDS011;4068;42.158;24.732;2022-12-28T07:30:00;13.07;;;6.22;;
8050;SDS011;4068;42.158;24.732;2022-12-28T07:32:26;12.07;;;6.55;;
8050;SDS011;4068;42.158;24.732;2022-12-28T07:34:52;11.20;;;6.30;;
8050;SDS011;4068;42.158;24.732;2022-12-28T07:37:17;7.88;;;5.78;;
8050;SDS011;4068;42.158;24.732;2022-12-28T07:39:43;10.60;;;5.90;;
8050;SDS011;4068;42.158;24.732;2022-12-28T07:42:08;14.98;;;6.00;;
8050;SDS011;4068;42.158;24.732;2022-12-28T07:44:35;12.77;;;6.88;;
8050;SDS011;4068;42.158;24.732;2022-12-28T07:47:01;9.88;;;6.40;;
8050;SDS011;4068;42.158;24.732;2022-12-28T07:49:27;9.82;;;6.15;;
8050;SDS011;4068;42.158;24.732;2022-12-28T07:51:52;9.68;;;6.32;;
8050;SDS011;4068;42.158;24.732;2022-12-28T07:54:18;19.25;;;7.47;;
8050;SDS011;4068;42.158;24.732;2022-12-28T07:56:43;11.65;;;6.78;;
8050;SDS011;4068;42.158;24.732;2022-12-28T07:59:09;16.05;;;8.63;;
8050;SDS011;4068;42.158;24.732;2022-12-28T08:01:37;14.82;;;8.10;;
8050;SDS011;4068;42.158;24.732;2022-12-28T08:04:07;18.55;;;9.52;;
8050;SDS011;4068;42.158;24.732;2022-12-28T08:06:37;16.65;;;9.50;;
8050;SDS011;4068;42.158;24.732;2022-12-28T08:09:05;19.48;;;9.13;;
8050;SDS011;4068;42.158;24.732;2022-12-28T08:11:33;21.98;;;10.70;;
8050;SDS011;4068;42.158;24.732;2022-12-28T08:14:00;18.60;;;9.05;;
8050;SDS011;4068;42.158;24.732;2022-12-28T08:16:27;14.32;;;8.52;;
8050;SDS011;4068;42.158;24.732;2022-12-28T08:18:54;21.70;;;9.82;;
8050;SDS011;4068;42.158;24.732;2022-12-28T08:23:47;17.40;;;8.60;;
8050;SDS011;4068;42.158;24.732;2022-12-28T08:26:14;17.70;;;9.00;;
8050;SDS011;4068;42.158;24.732;2022-12-28T08:28:42;24.15;;;10.07;;
8050;SDS011;4068;42.158;24.732;2022-12-28T08:31:12;23.33;;;11.07;;
8050;SDS011;4068;42.158;24.732;2022-12-28T08:34:05;20.73;;;9.90;;
8050;SDS011;4068;42.158;24.732;2022-12-28T08:36:32;18.63;;;9.93;;
8050;SDS011;4068;42.158;24.732;2022-12-28T08:38:58;17.33;;;10.13;;
8050;SDS011;4068;42.158;24.732;2022-12-28T08:41:25;16.98;;;10.05;;
8050;SDS011;4068;42.158;24.732;2022-12-28T08:43:52;14.90;;;8.98;;
8050;SDS011;4068;42.158;24.732;2022-12-28T08:46:19;19.63;;;9.38;;
8050;SDS011;4068;42.158;24.732;2022-12-28T08:48:56;20.20;;;9.18;;
8050;SDS011;4068;42.158;24.732;2022-12-28T08:51:28;17.55;;;9.15;;
8050;SDS011;4068;42.158;24.732;2022-12-28T08:53:56;17.58;;;8.25;;
8050;SDS011;4068;42.158;24.732;2022-12-28T08:56:23;16.65;;;9.63;;
8050;SDS011;4068;42.158;24.732;2022-12-28T08:58:51;15.65;;;8.85;;
8050;SDS011;4068;42.158;24.732;2022-12-28T09:01:19;16.05;;;9.73;;
8050;SDS011;4068;42.158;24.732;2022-12-28T09:03:45;16.05;;;9.75;;
8050;SDS011;4068;42.158;24.732;2022-12-28T09:06:13;23.83;;;9.45;;
8050;SDS011;4068;42.158;24.732;2022-12-28T09:08:41;21.70;;;9.88;;
8050;SDS011;4068;42.158;24.732;2022-12-28T09:11:08;24.15;;;10.52;;
8050;SDS011;4068;42.158;24.732;2022-12-28T09:13:36;19.15;;;10.00;;
8050;SDS011;4068;42.158;24.732;2022-12-28T09:16:06;18.92;;;9.52;;
8050;SDS011;4068;42.158;24.732;2022-12-28T09:18:36;22.38;;;9.55;;
8050;SDS011;4068;42.158;24.732;2022-12-28T09:21:07;19.35;;;9.63;;
8050;SDS011;4068;42.158;24.732;2022-12-28T09:23:34;15.68;;;9.30;;
8050;SDS011;4068;42.158;24.732;2022-12-28T09:26:13;14.23;;;9.13;;
8050;SDS011;4068;42.158;24.732;2022-12-28T09:28:47;14.82;;;8.68;;
8050;SDS011;4068;42.158;24.732;2022-12-28T09:31:14;14.10;;;8.00;;
8050;SDS011;4068;42.158;24.732;2022-12-28T09:33:40;17.80;;;8.57;;
8050;SDS011;4068;42.158;24.732;2022-12-28T09:36:26;21.02;;;9.07;;
8050;SDS011;4068;42.158;24.732;2022-12-28T09:38:54;17.17;;;8.13;;
8050;SDS011;4068;42.158;24.732;2022-12-28T09:41:25;15.10;;;8.00;;
8050;SDS011;4068;42.158;24.732;2022-12-28T09:46:35;20.17;;;7.93;;
8050;SDS011;4068;42.158;24.732;2022-12-28T09:49:13;21.23;;;7.93;;
8050;SDS011;4068;42.158;24.732;2022-12-28T09:51:46;15.80;;;8.07;;
8050;SDS011;4068;42.158;24.732;2022-12-28T09:54:16;13.02;;;7.35;;
8050;SDS011;4068;42.158;24.732;2022-12-28T09:56:42;13.60;;;8.65;;
8050;SDS011;4068;42.158;24.732;2022-12-28T09:59:13;14.95;;;8.65;;
8050;SDS011;4068;42.158;24.732;2022-12-28T10:01:43;15.25;;;9.13;;
8050;SDS011;4068;42.158;24.732;2022-12-28T10:04:10;15.18;;;8.85;;
8050;SDS011;4068;42.158;24.732;2022-12-28T10:06:36;13.45;;;7.88;;
8050;SDS011;4068;42.158;24.732;2022-12-28T10:09:04;14.75;;;8.32;;
8050;SDS011;4068;42.158;24.732;2022-12-28T10:11:40;19.05;;;9.73;;
8050;SDS011;4068;42.158;24.732;2022-12-28T10:14:15;14.98;;;8.77;;
8050;SDS011;4068;42.158;24.732;2022-12-28T10:16:41;14.48;;;9.40;;
8050;SDS011;4068;42.158;24.732;2022-12-28T10:19:07;19.58;;;9.63;;
8050;SDS011;4068;42.158;24.732;2022-12-28T10:21:32;16.23;;;8.45;;
8050;SDS011;4068;42.158;24.732;2022-12-28T10:24:00;16.27;;;8.90;;
8050;SDS011;4068;42.158;24.732;2022-12-28T10:26:29;13.05;;;8.85;;
8050;SDS011;4068;42.158;24.732;2022-12-28T10:28:58;19.08;;;9.85;;
8050;SDS011;4068;42.158;24.732;2022-12-28T10:31:34;21.40;;;11.48;;
8050;SDS011;4068;42.158;24.732;2022-12-28T10:34:01;31.20;;;14.77;;
8050;SDS011;4068;42.158;24.732;2022-12-28T10:36:39;22.90;;;12.23;;
8050;SDS011;4068;42.158;24.732;2022-12-28T10:39:05;21.50;;;11.98;;
8050;SDS011;4068;42.158;24.732;2022-12-28T10:41:40;20.05;;;10.95;;
8050;SDS011;4068;42.158;24.732;2022-12-28T10:44:28;25.20;;;12.80;;
8050;SDS011;4068;42.158;24.732;2022-12-28T10:47:04;14.77;;;9.02;;
8050;SDS011;4068;42.158;24.732;2022-12-28T10:49:45;17.15;;;9.30;;
8050;SDS011;4068;42.158;24.732;2022-12-28T10:54:39;18.45;;;8.98;;
8050;SDS011;4068;42.158;24.732;2022-12-28T10:57:09;13.48;;;7.72;;
8050;SDS011;4068;42.158;24.732;2022-12-28T10:59:40;15.05;;;8.15;;
8050;SDS011;4068;42.158;24.732;2022-12-28T11:02:26;17.88;;;8.13;;
8050;SDS011;4068;42.158;24.732;2022-12-28T11:04:52;16.52;;;7.65;;
8050;SDS011;4068;42.158;24.732;2022-12-28T11:07:37;14.90;;;7.30;;
8050;SDS011;4068;42.158;24.732;2022-12-28T11:12:49;12.48;;;7.72;;
8050;SDS011;4068;42.158;24.732;2022-12-28T11:15:17;13.88;;;7.85;;
8050;SDS011;4068;42.158;24.732;2022-12-28T11:17:51;10.77;;;7.47;;
8050;SDS011;4068;42.158;24.732;2022-12-28T11:20:22;13.57;;;7.55;;
8050;SDS011;4068;42.158;24.732;2022-12-28T11:22:53;14.90;;;8.05;;
8050;SDS011;4068;42.158;24.732;2022-12-28T11:25:20;12.63;;;7.97;;
8050;SDS011;4068;42.158;24.732;2022-12-28T11:27:50;15.70;;;8.30;;
8050;SDS011;4068;42.158;24.732;2022-12-28T11:30:16;13.63;;;7.65;;
8050;SDS011;4068;42.158;24.732;2022-12-28T11:35:25;16.88;;;7.68;;
8050;SDS011;4068;42.158;24.732;2022-12-28T11:37:55;19.42;;;8.68;;
8050;SDS011;4068;42.158;24.732;2022-12-28T11:45:57;14.68;;;8.38;;
8050;SDS011;4068;42.158;24.732;2022-12-28T11:51:15;19.95;;;7.97;;
8050;SDS011;4068;42.158;24.732;2022-12-28T11:56:10;14.73;;;8.80;;
8050;SDS011;4068;42.158;24.732;2022-12-28T12:01:05;20.38;;;9.07;;
8050;SDS011;4068;42.158;24.732;2022-12-28T12:06:30;19.30;;;8.57;;
8050;SDS011;4068;42.158;24.732;2022-12-28T12:11:56;22.58;;;9.82;;
8050;SDS011;4068;42.158;24.732;2022-12-28T12:14:28;17.65;;;8.85;;
8050;SDS011;4068;42.158;24.732;2022-12-28T12:17:03;18.42;;;10.52;;
8050;SDS011;4068;42.158;24.732;2022-12-28T12:19:35;19.25;;;9.48;;
8050;SDS011;4068;42.158;24.732;2022-12-28T12:27:58;19.92;;;9.23;;
8050;SDS011;4068;42.158;24.732;2022-12-28T12:30:27;16.65;;;9.00;;
8050;SDS011;4068;42.158;24.732;2022-12-28T12:32:58;15.32;;;8.63;;
8050;SDS011;4068;42.158;24.732;2022-12-28T12:35:28;19.02;;;8.85;;
8050;SDS011;4068;42.158;24.732;2022-12-28T12:52:40;15.85;;;9.73;;
8050;SDS011;4068;42.158;24.732;2022-12-28T13:03:15;12.63;;;8.50;;
8050;SDS011;4068;42.158;24.732;2022-12-28T13:05:44;12.65;;;8.13;;
8050;SDS011;4068;42.158;24.732;2022-12-28T13:08:23;11.45;;;8.18;;
8050;SDS011;4068;42.158;24.732;2022-12-28T13:10:52;13.85;;;7.35;;
8050;SDS011;4068;42.158;24.732;2022-12-28T13:13:30;10.57;;;7.63;;
8050;SDS011;4068;42.158;24.732;2022-12-28T13:16:03;11.68;;;7.80;;
8050;SDS011;4068;42.158;24.732;2022-12-28T13:18:32;13.35;;;8.50;;
8050;SDS011;4068;42.158;24.732;2022-12-28T13:21:02;15.10;;;9.20;;
8050;SDS011;4068;42.158;24.732;2022-12-28T13:23:30;12.55;;;7.75;;
8050;SDS011;4068;42.158;24.732;2022-12-28T13:25:57;23.60;;;8.68;;
8050;SDS011;4068;42.158;24.732;2022-12-28T13:28:33;10.85;;;7.60;;
8050;SDS011;4068;42.158;24.732;2022-12-28T13:31:04;13.60;;;7.82;;
8050;SDS011;4068;42.158;24.732;2022-12-28T13:33:33;12.60;;;8.13;;
8050;SDS011;4068;42.158;24.732;2022-12-28T13:38:33;11.65;;;7.85;;
8050;SDS011;4068;42.158;24.732;2022-12-28T13:40:58;14.05;;;8.15;;
8050;SDS011;4068;42.158;24.732;2022-12-28T13:43:41;13.55;;;8.32;;
8050;SDS011;4068;42.158;24.732;2022-12-28T13:46:34;10.05;;;7.75;;
8050;SDS011;4068;42.158;24.732;2022-12-28T13:49:02;11.45;;;7.47;;
8050;SDS011;4068;42.158;24.732;2022-12-28T13:51:29;10.65;;;7.13;;
8050;SDS011;4068;42.158;24.732;2022-12-28T13:53:58;10.38;;;7.78;;
8050;SDS011;4068;42.158;24.732;2022-12-28T13:56:25;14.13;;;8.45;;
8050;SDS011;4068;42.158;24.732;2022-12-28T13:58:56;12.85;;;9.10;;
8050;SDS011;4068;42.158;24.732;2022-12-28T14:01:29;17.10;;;12.00;;
8050;SDS011;4068;42.158;24.732;2022-12-28T14:04:00;18.90;;;12.07;;
8050;SDS011;4068;42.158;24.732;2022-12-28T14:06:29;23.73;;;11.68;;
8050;SDS011;4068;42.158;24.732;2022-12-28T14:08:55;18.00;;;10.98;;
8050;SDS011;4068;42.158;24.732;2022-12-28T14:11:22;20.13;;;9.70;;
8050;SDS011;4068;42.158;24.732;2022-12-28T14:13:49;16.02;;;8.98;;
8050;SDS011;4068;42.158;24.732;2022-12-28T14:16:15;14.40;;;9.18;;
8050;SDS011;4068;42.158;24.732;2022-12-28T14:18:41;15.77;;;10.30;;
8050;SDS011;4068;42.158;24.732;2022-12-28T14:21:06;13.68;;;9.32;;
8050;SDS011;4068;42.158;24.732;2022-12-28T14:23:33;15.23;;;9.50;;
8050;SDS011;4068;42.158;24.732;2022-12-28T14:26:01;14.18;;;9.18;;
8050;SDS011;4068;42.158;24.732;2022-12-28T14:31:04;15.00;;;9.40;;
8050;SDS011;4068;42.158;24.732;2022-12-28T14:34:15;12.27;;;8.10;;
8050;SDS011;4068;42.158;24.732;2022-12-28T14:36:40;10.02;;;7.05;;
8050;SDS011;4068;42.158;24.732;2022-12-28T14:39:23;16.17;;;8.63;;
8050;SDS011;4068;42.158;24.732;2022-12-28T14:41:51;15.18;;;8.18;;
8050;SDS011;4068;42.158;24.732;2022-12-28T14:44:27;15.50;;;7.60;;
8050;SDS011;4068;42.158;24.732;2022-12-28T14:46:54;11.90;;;7.53;;
8050;SDS011;4068;42.158;24.732;2022-12-28T14:54:21;13.18;;;8.68;;
8050;SDS011;4068;42.158;24.732;2022-12-28T15:02:44;16.08;;;8.90;;
8050;SDS011;4068;42.158;24.732;2022-12-28T15:08:00;16.58;;;9.70;;
8050;SDS011;4068;42.158;24.732;2022-12-28T15:10:25;13.40;;;9.40;;
8050;SDS011;4068;42.158;24.732;2022-12-28T15:12:51;17.90;;;10.45;;
8050;SDS011;4068;42.158;24.732;2022-12-28T15:15:18;17.70;;;10.38;;
8050;SDS011;4068;42.158;24.732;2022-12-28T15:17:44;17.05;;;10.48;;
8050;SDS011;4068;42.158;24.732;2022-12-28T15:20:10;20.92;;;9.80;;
8050;SDS011;4068;42.158;24.732;2022-12-28T15:22:36;19.80;;;10.10;;
8050;SDS011;4068;42.158;24.732;2022-12-28T15:25:01;15.55;;;10.15;;
8050;SDS011;4068;42.158;24.732;2022-12-28T15:27:27;16.90;;;10.05;;
8050;SDS011;4068;42.158;24.732;2022-12-28T15:29:52;13.75;;;8.90;;
8050;SDS011;4068;42.158;24.732;2022-12-28T15:32:17;19.85;;;9.27;;
8050;SDS011;4068;42.158;24.732;2022-12-28T15:34:43;11.70;;;7.72;;
8050;SDS011;4068;42.158;24.732;2022-12-28T15:37:08;13.30;;;7.47;;
8050;SDS011;4068;42.158;24.732;2022-12-28T15:39:34;14.18;;;7.88;;
8050;SDS011;4068;42.158;24.732;2022-12-28T15:42:00;14.13;;;7.38;;
8050;SDS011;4068;42.158;24.732;2022-12-28T15:44:25;15.48;;;7.47;;
8050;SDS011;4068;42.158;24.732;2022-12-28T15:46:51;13.15;;;7.00;;
8050;SDS011;4068;42.158;24.732;2022-12-28T15:49:16;14.25;;;7.10;;
8050;SDS011;4068;42.158;24.732;2022-12-28T15:51:43;9.98;;;6.10;;
8050;SDS011;4068;42.158;24.732;2022-12-28T15:54:10;14.70;;;6.47;;
8050;SDS011;4068;42.158;24.732;2022-12-28T15:56:37;12.85;;;6.57;;
8050;SDS011;4068;42.158;24.732;2022-12-28T15:59:04;14.27;;;7.05;;
8050;SDS011;4068;42.158;24.732;2022-12-28T16:01:31;9.75;;;7.03;;
8050;SDS011;4068;42.158;24.732;2022-12-28T16:03:58;13.80;;;7.80;;
8050;SDS011;4068;42.158;24.732;2022-12-28T16:06:25;17.58;;;7.63;;
8050;SDS011;4068;42.158;24.732;2022-12-28T16:08:52;13.85;;;8.00;;
8050;SDS011;4068;42.158;24.732;2022-12-28T16:11:19;12.02;;;8.30;;
8050;SDS011;4068;42.158;24.732;2022-12-28T16:14:18;15.77;;;8.82;;
8050;SDS011;4068;42.158;24.732;2022-12-28T16:16:39;18.23;;;10.50;;
8050;SDS011;4068;42.158;24.732;2022-12-28T16:19:05;17.08;;;9.82;;
8050;SDS011;4068;42.158;24.732;2022-12-28T16:21:32;18.80;;;10.45;;
8050;SDS011;4068;42.158;24.732;2022-12-28T16:23:59;16.33;;;9.98;;
8050;SDS011;4068;42.158;24.732;2022-12-28T16:26:25;18.03;;;8.63;;
8050;SDS011;4068;42.158;24.732;2022-12-28T16:28:50;14.02;;;8.35;;
8050;SDS011;4068;42.158;24.732;2022-12-28T16:33:56;18.27;;;7.68;;
8050;SDS011;4068;42.158;24.732;2022-12-28T16:36:23;9.88;;;7.03;;
8050;SDS011;4068;42.158;24.732;2022-12-28T16:38:50;11.50;;;7.30;;
8050;SDS011;4068;42.158;24.732;2022-12-28T16:41:15;13.63;;;7.43;;
8050;SDS011;4068;42.158;24.732;2022-12-28T16:43:44;11.18;;;7.00;;
8050;SDS011;4068;42.158;24.732;2022-12-28T16:46:11;12.10;;;6.63;;
8050;SDS011;4068;42.158;24.732;2022-12-28T16:48:40;14.15;;;7.22;;
8050;SDS011;4068;42.158;24.732;2022-12-28T16:51:05;13.50;;;7.00;;
8050;SDS011;4068;42.158;24.732;2022-12-28T16:53:31;12.40;;;7.28;;
8050;SDS011;4068;42.158;24.732;2022-12-28T16:56:00;14.32;;;8.07;;
8050;SDS011;4068;42.158;24.732;2022-12-28T16:58:27;18.15;;;9.40;;
8050;SDS011;4068;42.158;24.732;2022-12-28T17:00:53;23.90;;;8.10;;